createdAt,value
2018-11-03T00:00:27.073Z,4.45
2018-11-03T00:03:07.529Z,2.92
2018-11-03T02:16:32.412Z,5.28
2018-11-03T02:33:12.572Z,8.00
2018-11-03T02:37:07.335Z,9.58
2018-11-03T02:39:51.872Z,5.03
2018-11-03T02:42:29.415Z,4.73
2018-11-03T02:45:05.539Z,12.30
2018-11-03T03:05:30.492Z,3.98
2018-11-03T03:12:18.320Z,8.30
2018-11-03T03:30:01.806Z,8.10
2018-11-03T03:48:55.617Z,11.43
2018-11-03T03:54:54.014Z,10.82
2018-11-03T03:58:39.207Z,11.60
2018-11-03T04:09:03.424Z,12.20
2018-11-03T04:27:01.394Z,11.80
2018-11-03T04:29:57.012Z,12.73
2018-11-03T04:32:40.279Z,12.07
2018-11-03T04:35:21.925Z,4.95
2018-11-03T04:38:06.707Z,3.00
2018-11-03T04:40:51.147Z,12.30
2018-11-03T04:46:17.505Z,12.00
2018-11-03T04:49:07.900Z,9.80
2018-11-03T04:51:54.699Z,10.43
2018-11-03T04:54:39.053Z,12.40
2018-11-03T05:00:21.377Z,2.87
2018-11-03T05:03:00.413Z,13.77
2018-11-03T05:05:45.806Z,10.40
2018-11-03T05:19:41.290Z,11.88
2018-11-03T05:22:19.311Z,10.57
2018-11-03T05:25:04.136Z,13.33
2018-11-03T05:30:25.337Z,13.93
2018-11-03T05:36:18.721Z,13.87
2018-11-03T06:40:43.094Z,15.00
2018-11-03T06:46:47.912Z,9.97
2018-11-03T06:52:00.810Z,12.53
2018-11-03T08:11:47.946Z,8.25
2018-11-03T09:19:48.404Z,8.60
2018-11-03T09:22:20.562Z,9.18
2018-11-03T09:24:51.435Z,11.60
2018-11-03T09:27:22.329Z,11.33
2018-11-03T09:29:52.689Z,11.00
2018-11-03T09:32:23.168Z,7.70
2018-11-03T09:35:01.082Z,12.28
2018-11-03T09:37:32.978Z,8.03
2018-11-03T09:40:04.094Z,5.75
2018-11-03T09:42:58.432Z,10.08
2018-11-03T09:46:32.204Z,7.05
2018-11-03T09:49:06.127Z,8.58
2018-11-03T09:51:38.023Z,6.65
2018-11-03T09:54:12.797Z,9.33
2018-11-03T09:56:45.645Z,8.75
2018-11-03T09:59:21.601Z,8.83
2018-11-03T10:01:55.281Z,6.75
2018-11-03T10:04:34.135Z,8.70
2018-11-03T10:07:16.412Z,5.22
2018-11-03T10:09:49.983Z,8.60
2018-11-03T10:12:21.088Z,6.08
2018-11-03T10:14:53.827Z,8.35
2018-11-03T10:17:23.929Z,9.98
2018-11-03T10:19:56.790Z,9.70
2018-11-03T10:22:30.667Z,9.40
2018-11-03T10:25:02.158Z,9.80
2018-11-03T10:27:43.461Z,10.45
2018-11-03T10:30:51.180Z,10.60
2018-11-03T10:33:32.844Z,9.58
2018-11-03T10:36:04.311Z,6.50
2018-11-03T10:38:42.289Z,8.90
2018-11-03T10:41:29.159Z,8.73
2018-11-03T10:44:02.919Z,10.78
2018-11-03T10:46:44.256Z,8.10
2018-11-03T10:49:31.533Z,6.17
2018-11-03T10:52:11.794Z,7.17
2018-11-03T10:54:46.976Z,8.30
2018-11-03T10:57:24.264Z,7.75
2018-11-03T10:59:58.946Z,5.17
2018-11-03T11:02:34.328Z,6.37
2018-11-03T11:05:10.574Z,3.45
2018-11-03T11:07:50.322Z,5.35
2018-11-03T11:10:32.930Z,4.03
2018-11-03T11:15:47.414Z,4.17
2018-11-03T11:18:20.360Z,6.20
2018-11-03T11:20:56.655Z,3.17
2018-11-03T11:23:29.357Z,3.42
2018-11-03T11:26:16.803Z,3.17
2018-11-03T11:35:06.841Z,5.40
2018-11-03T11:40:41.638Z,3.45
2018-11-03T11:43:23.651Z,4.85
2018-11-03T11:48:53.439Z,3.67
2018-11-03T11:51:25.945Z,2.22
2018-11-03T11:54:14.206Z,4.33
2018-11-03T11:56:45.760Z,4.85
2018-11-03T11:59:19.753Z,3.17
2018-11-03T12:02:06.422Z,3.60
2018-11-03T12:04:52.440Z,2.90
2018-11-03T12:07:26.802Z,4.72
2018-11-03T12:10:06.658Z,2.00
2018-11-03T12:12:44.583Z,3.35
2018-11-03T12:15:18.133Z,3.58
2018-11-03T12:17:51.000Z,3.42
2018-11-03T12:20:34.527Z,3.58
2018-11-03T12:26:21.179Z,3.65
2018-11-03T12:28:54.499Z,3.90
2018-11-03T12:31:58.051Z,2.40
2018-11-03T12:34:35.725Z,3.08
2018-11-03T12:40:01.359Z,2.95
2018-11-03T12:42:40.678Z,2.60
2018-11-03T12:45:29.796Z,4.00
2018-11-03T12:48:10.865Z,4.42
2018-11-03T12:50:51.830Z,3.05
2018-11-03T13:24:09.269Z,1.77
2018-11-03T13:26:44.491Z,2.90
2018-11-03T13:29:26.055Z,2.60
2018-11-03T13:32:02.604Z,2.02
2018-11-03T13:35:17.128Z,3.50
2018-11-03T13:38:11.025Z,3.58
2018-11-03T13:40:50.752Z,2.98
2018-11-03T13:43:36.920Z,3.58
2018-11-03T13:46:21.319Z,4.10
2018-11-03T13:52:00.440Z,5.33
2018-11-03T13:54:41.671Z,4.80
2018-11-03T13:57:19.298Z,4.62
2018-11-03T13:59:51.583Z,4.53
2018-11-03T14:02:28.247Z,4.42
2018-11-03T14:05:03.339Z,4.37
2018-11-03T14:12:46.476Z,2.80
2018-11-03T14:15:30.418Z,1.98
2018-11-03T14:18:13.225Z,2.22
2018-11-03T14:21:03.191Z,1.90
2018-11-03T14:23:36.921Z,2.77
2018-11-03T14:26:09.490Z,3.67
2018-11-03T14:28:40.780Z,4.08
2018-11-03T14:31:12.660Z,4.10
2018-11-03T14:33:45.137Z,3.83
2018-11-03T14:36:17.501Z,4.30
2018-11-03T14:38:54.232Z,1.85
2018-11-03T14:41:29.243Z,2.52
2018-11-03T14:44:01.639Z,3.30
2018-11-03T14:46:40.813Z,4.25
2018-11-03T14:49:14.963Z,3.30
2018-11-03T14:52:00.776Z,3.87
2018-11-03T14:54:37.860Z,3.50
2018-11-03T14:57:36.427Z,3.40
2018-11-03T15:03:37.618Z,3.50
2018-11-03T15:06:25.819Z,3.80
2018-11-03T15:08:58.332Z,3.67
2018-11-03T15:36:09.828Z,4.35
2018-11-03T15:38:45.282Z,4.72
2018-11-03T15:41:19.962Z,4.80
2018-11-03T15:44:00.109Z,4.83
2018-11-03T15:46:54.224Z,4.70
2018-11-03T15:49:49.439Z,4.62
2018-11-03T15:52:25.589Z,5.85
2018-11-03T16:01:11.507Z,4.55
2018-11-03T16:03:55.470Z,6.00
2018-11-03T16:06:36.269Z,5.75
2018-11-03T16:09:18.139Z,5.53
2018-11-03T16:12:12.839Z,6.87
2018-11-03T16:14:53.243Z,7.08
2018-11-03T16:22:37.348Z,10.55
2018-11-03T16:26:43.805Z,13.32
2018-11-03T16:32:34.172Z,13.05
2018-11-03T16:35:27.744Z,13.00
2018-11-03T16:38:26.674Z,13.35
2018-11-03T16:41:03.203Z,12.53
2018-11-03T16:44:00.621Z,13.88
2018-11-03T16:46:46.574Z,14.90
2018-11-03T16:53:16.997Z,12.58
2018-11-03T16:56:08.603Z,13.25
2018-11-03T17:08:00.371Z,10.58
2018-11-03T17:13:54.306Z,9.58
2018-11-03T17:20:22.026Z,9.88
2018-11-03T17:27:07.082Z,13.18
2018-11-03T17:29:56.057Z,10.93
2018-11-03T23:27:05.812Z,12.20
2018-11-03T23:29:53.193Z,12.30
2018-11-03T23:33:07.275Z,11.93
2018-11-03T23:36:54.270Z,13.25
2018-11-03T23:42:34.367Z,13.45
2018-11-03T23:45:38.428Z,13.03
2018-11-03T23:55:55.712Z,12.75
